sensor_id;sensor_type;location;lat;lon;timestamp;P1;P2;P0
67892;PMS7003;54688;52.376;16.744;2023-04-03T00:02:06;3;1;
67892;PMS7003;54688;52.376;16.744;2023-04-03T00:05:08;4;2;
67892;PMS7003;54688;52.376;16.744;2023-04-03T00:08:10;4;3;
67892;PMS7003;54688;52.376;16.744;2023-04-03T00:11:12;4;2;
67892;PMS7003;54688;52.376;16.744;2023-04-03T00:14:15;3;3;
67892;PMS7003;54688;52.376;16.744;2023-04-03T00:17:17;3;2;
67892;PMS7003;54688;52.376;16.744;2023-04-03T00:23:17;5;1;
67892;PMS7003;54688;52.376;16.744;2023-04-03T00:26:19;5;2;
67892;PMS7003;54688;52.376;16.744;2023-04-03T00:29:21;4;2;
67892;PMS7003;54688;52.376;16.744;2023-04-03T00:32:24;3;2;
67892;PMS7003;54688;52.376;16.744;2023-04-03T00:35:26;2;2;
67892;PMS7003;54688;52.376;16.744;2023-04-03T00:38:28;4;3;
67892;PMS7003;54688;52.376;16.744;2023-04-03T00:41:30;3;2;
67892;PMS7003;54688;52.376;16.744;2023-04-03T00:45:37;1;1;
67892;PMS7003;54688;52.376;16.744;2023-04-03T00:48:41;2;2;
67892;PMS7003;54688;52.376;16.744;2023-04-03T00:51:44;3;2;
67892;PMS7003;54688;52.376;16.744;2023-04-03T00:54:47;1;1;
67892;PMS7003;54688;52.376;16.744;2023-04-03T00:57:51;2;2;
67892;PMS7003;54688;52.376;16.744;2023-04-03T01:00:55;3;2;
67892;PMS7003;54688;52.376;16.744;2023-04-03T01:04:00;4;2;
67892;PMS7003;54688;52.376;16.744;2023-04-03T01:07:04;3;2;
67892;PMS7003;54688;52.376;16.744;2023-04-03T01:10:10;2;2;
67892;PMS7003;54688;52.376;16.744;2023-04-03T01:13:23;2;1;
67892;PMS7003;54688;52.376;16.744;2023-04-03T01:16:27;1;1;
67892;PMS7003;54688;52.376;16.744;2023-04-03T01:19:29;3;1;
67892;PMS7003;54688;52.376;16.744;2023-04-03T01:25:31;3;2;
67892;PMS7003;54688;52.376;16.744;2023-04-03T01:31:45;5;1;
67892;PMS7003;54688;52.376;16.744;2023-04-03T01:34:47;2;2;
67892;PMS7003;54688;52.376;16.744;2023-04-03T01:37:49;3;1;
67892;PMS7003;54688;52.376;16.744;2023-04-03T01:40:52;2;1;
67892;PMS7003;54688;52.376;16.744;2023-04-03T01:43:54;1;1;
67892;PMS7003;54688;52.376;16.744;2023-04-03T01:46:56;7;1;
67892;PMS7003;54688;52.376;16.744;2023-04-03T01:49:58;5;2;
67892;PMS7003;54688;52.376;16.744;2023-04-03T01:53:00;1;1;
67892;PMS7003;54688;52.376;16.744;2023-04-03T01:56:02;1;1;
67892;PMS7003;54688;52.376;16.744;2023-04-03T01:59:04;4;2;
67892;PMS7003;54688;52.376;16.744;2023-04-03T02:02:07;3;1;
67892;PMS7003;54688;52.376;16.744;2023-04-03T02:05:09;7;1;
67892;PMS7003;54688;52.376;16.744;2023-04-03T02:11:10;1;1;
67892;PMS7003;54688;52.376;16.744;2023-04-03T02:14:12;2;2;
67892;PMS7003;54688;52.376;16.744;2023-04-03T02:17:14;2;1;
67892;PMS7003;54688;52.376;16.744;2023-04-03T02:20:17;3;1;
67892;PMS7003;54688;52.376;16.744;2023-04-03T02:23:19;6;1;
67892;PMS7003;54688;52.376;16.744;2023-04-03T02:26:21;5;1;
67892;PMS7003;54688;52.376;16.744;2023-04-03T02:29:23;1;1;
67892;PMS7003;54688;52.376;16.744;2023-04-03T02:32:25;1;1;
67892;PMS7003;54688;52.376;16.744;2023-04-03T02:38:26;2;2;
67892;PMS7003;54688;52.376;16.744;2023-04-03T02:41:28;2;2;
67892;PMS7003;54688;52.376;16.744;2023-04-03T02:44:30;3;2;
67892;PMS7003;54688;52.376;16.744;2023-04-03T02:47:33;3;2;
67892;PMS7003;54688;52.376;16.744;2023-04-03T02:50:35;3;1;
67892;PMS7003;54688;52.376;16.744;2023-04-03T02:53:37;5;1;
67892;PMS7003;54688;52.376;16.744;2023-04-03T02:56:39;1;1;
67892;PMS7003;54688;52.376;16.744;2023-04-03T02:59:41;0;0;
67892;PMS7003;54688;52.376;16.744;2023-04-03T03:02:43;1;1;
67892;PMS7003;54688;52.376;16.744;2023-04-03T03:05:45;5;1;
67892;PMS7003;54688;52.376;16.744;2023-04-03T03:08:48;1;0;
67892;PMS7003;54688;52.376;16.744;2023-04-03T03:11:49;2;1;
67892;PMS7003;54688;52.376;16.744;2023-04-03T03:14:52;3;2;
67892;PMS7003;54688;52.376;16.744;2023-04-03T03:17:54;5;1;
67892;PMS7003;54688;52.376;16.744;2023-04-03T03:20:58;1;1;
67892;PMS7003;54688;52.376;16.744;2023-04-03T03:24:01;2;1;
67892;PMS7003;54688;52.376;16.744;2023-04-03T03:27:03;0;0;
67892;PMS7003;54688;52.376;16.744;2023-04-03T03:30:07;1;0;
67892;PMS7003;54688;52.376;16.744;2023-04-03T03:33:10;2;1;
67892;PMS7003;54688;52.376;16.744;2023-04-03T03:36:11;1;1;
67892;PMS7003;54688;52.376;16.744;2023-04-03T03:39:14;3;3;
67892;PMS7003;54688;52.376;16.744;2023-04-03T03:42:16;2;1;
67892;PMS7003;54688;52.376;16.744;2023-04-03T03:45:18;3;0;
67892;PMS7003;54688;52.376;16.744;2023-04-03T03:48:20;2;2;
67892;PMS7003;54688;52.376;16.744;2023-04-03T03:51:22;2;1;
67892;PMS7003;54688;52.376;16.744;2023-04-03T03:54:24;1;1;
67892;PMS7003;54688;52.376;16.744;2023-04-03T03:57:27;3;1;
67892;PMS7003;54688;52.376;16.744;2023-04-03T04:00:29;2;1;
67892;PMS7003;54688;52.376;16.744;2023-04-03T04:03:31;3;1;
67892;PMS7003;54688;52.376;16.744;2023-04-03T04:06:33;2;1;
67892;PMS7003;54688;52.376;16.744;2023-04-03T04:09:35;2;1;
67892;PMS7003;54688;52.376;16.744;2023-04-03T04:12:37;1;1;
67892;PMS7003;54688;52.376;16.744;2023-04-03T04:15:39;2;2;
67892;PMS7003;54688;52.376;16.744;2023-04-03T04:18:41;3;1;
67892;PMS7003;54688;52.376;16.744;2023-04-03T04:21:43;1;1;
67892;PMS7003;54688;52.376;16.744;2023-04-03T04:24:46;1;1;
67892;PMS7003;54688;52.376;16.744;2023-04-03T04:27:48;8;2;
67892;PMS7003;54688;52.376;16.744;2023-04-03T04:30:50;1;1;
67892;PMS7003;54688;52.376;16.744;2023-04-03T04:33:52;5;2;
67892;PMS7003;54688;52.376;16.744;2023-04-03T04:36:54;4;2;
67892;PMS7003;54688;52.376;16.744;2023-04-03T04:39:56;6;2;
67892;PMS7003;54688;52.376;16.744;2023-04-03T04:42:59;3;1;
67892;PMS7003;54688;52.376;16.744;2023-04-03T04:46:02;6;1;
67892;PMS7003;54688;52.376;16.744;2023-04-03T04:49:05;2;1;
67892;PMS7003;54688;52.376;16.744;2023-04-03T04:52:07;5;1;
67892;PMS7003;54688;52.376;16.744;2023-04-03T04:55:09;7;2;
67892;PMS7003;54688;52.376;16.744;2023-04-03T04:58:11;5;3;
67892;PMS7003;54688;52.376;16.744;2023-04-03T05:01:13;5;3;
67892;PMS7003;54688;52.376;16.744;2023-04-03T05:04:16;4;2;
67892;PMS7003;54688;52.376;16.744;2023-04-03T05:07:18;2;2;
67892;PMS7003;54688;52.376;16.744;2023-04-03T05:10:20;3;2;
67892;PMS7003;54688;52.376;16.744;2023-04-03T05:13:22;3;3;
67892;PMS7003;54688;52.376;16.744;2023-04-03T05:16:24;4;3;
67892;PMS7003;54688;52.376;16.744;2023-04-03T05:19:26;4;2;
67892;PMS7003;54688;52.376;16.744;2023-04-03T05:22:28;4;3;
67892;PMS7003;54688;52.376;16.744;2023-04-03T05:25:30;3;2;
67892;PMS7003;54688;52.376;16.744;2023-04-03T05:28:32;6;3;
67892;PMS7003;54688;52.376;16.744;2023-04-03T05:31:35;1;1;
67892;PMS7003;54688;52.376;16.744;2023-04-03T05:34:37;2;2;
67892;PMS7003;54688;52.376;16.744;2023-04-03T05:40:37;1;0;
67892;PMS7003;54688;52.376;16.744;2023-04-03T05:43:40;2;2;
67892;PMS7003;54688;52.376;16.744;2023-04-03T05:46:42;4;2;
67892;PMS7003;54688;52.376;16.744;2023-04-03T05:49:44;2;2;
67892;PMS7003;54688;52.376;16.744;2023-04-03T05:52:49;3;3;
67892;PMS7003;54688;52.376;16.744;2023-04-03T05:55:52;4;2;
67892;PMS7003;54688;52.376;16.744;2023-04-03T05:58:54;5;3;
67892;PMS7003;54688;52.376;16.744;2023-04-03T06:01:56;7;3;
67892;PMS7003;54688;52.376;16.744;2023-04-03T06:04:59;9;2;
67892;PMS7003;54688;52.376;16.744;2023-04-03T06:08:01;5;3;
67892;PMS7003;54688;52.376;16.744;2023-04-03T06:11:03;3;2;
67892;PMS7003;54688;52.376;16.744;2023-04-03T06:14:05;9;3;
67892;PMS7003;54688;52.376;16.744;2023-04-03T06:17:07;7;3;
67892;PMS7003;54688;52.376;16.744;2023-04-03T06:20:10;4;3;
67892;PMS7003;54688;52.376;16.744;2023-04-03T06:23:13;3;2;
67892;PMS7003;54688;52.376;16.744;2023-04-03T06:26:16;5;4;
67892;PMS7003;54688;52.376;16.744;2023-04-03T06:29:20;3;3;
67892;PMS7003;54688;52.376;16.744;2023-04-03T06:32:23;5;4;
67892;PMS7003;54688;52.376;16.744;2023-04-03T06:35:25;4;4;
67892;PMS7003;54688;52.376;16.744;2023-04-03T06:38:27;3;3;
67892;PMS7003;54688;52.376;16.744;2023-04-03T06:41:29;3;3;
67892;PMS7003;54688;52.376;16.744;2023-04-03T06:44:31;5;2;
67892;PMS7003;54688;52.376;16.744;2023-04-03T06:47:33;4;3;
67892;PMS7003;54688;52.376;16.744;2023-04-03T06:50:35;2;2;
67892;PMS7003;54688;52.376;16.744;2023-04-03T06:53:37;6;4;
67892;PMS7003;54688;52.376;16.744;2023-04-03T06:56:40;6;4;
67892;PMS7003;54688;52.376;16.744;2023-04-03T06:59:42;7;5;
67892;PMS7003;54688;52.376;16.744;2023-04-03T07:05:44;5;2;
67892;PMS7003;54688;52.376;16.744;2023-04-03T07:08:47;4;3;
67892;PMS7003;54688;52.376;16.744;2023-04-03T07:11:49;1;1;
67892;PMS7003;54688;52.376;16.744;2023-04-03T07:14:51;4;2;
67892;PMS7003;54688;52.376;16.744;2023-04-03T07:17:53;6;3;
67892;PMS7003;54688;52.376;16.744;2023-04-03T07:20:55;6;3;
67892;PMS7003;54688;52.376;16.744;2023-04-03T07:23:58;2;1;
67892;PMS7003;54688;52.376;16.744;2023-04-03T07:27:00;3;2;
67892;PMS7003;54688;52.376;16.744;2023-04-03T07:33:01;1;1;
67892;PMS7003;54688;52.376;16.744;2023-04-03T07:36:04;7;1;
67892;PMS7003;54688;52.376;16.744;2023-04-03T07:39:06;2;2;
67892;PMS7003;54688;52.376;16.744;2023-04-03T07:42:08;1;1;
67892;PMS7003;54688;52.376;16.744;2023-04-03T07:45:10;3;0;
67892;PMS7003;54688;52.376;16.744;2023-04-03T07:48:13;0;0;
67892;PMS7003;54688;52.376;16.744;2023-04-03T07:54:15;2;0;
67892;PMS7003;54688;52.376;16.744;2023-04-03T07:57:17;1;1;
67892;PMS7003;54688;52.376;16.744;2023-04-03T08:00:20;0;0;
67892;PMS7003;54688;52.376;16.744;2023-04-03T08:03:21;1;0;
67892;PMS7003;54688;52.376;16.744;2023-04-03T08:06:24;1;1;
67892;PMS7003;54688;52.376;16.744;2023-04-03T08:09:26;1;0;
67892;PMS7003;54688;52.376;16.744;2023-04-03T08:15:27;0;0;
67892;PMS7003;54688;52.376;16.744;2023-04-03T08:18:29;1;0;
67892;PMS7003;54688;52.376;16.744;2023-04-03T08:21:31;0;0;
67892;PMS7003;54688;52.376;16.744;2023-04-03T08:24:33;0;0;
67892;PMS7003;54688;52.376;16.744;2023-04-03T08:27:36;1;1;
67892;PMS7003;54688;52.376;16.744;2023-04-03T08:30:39;1;1;
67892;PMS7003;54688;52.376;16.744;2023-04-03T08:33:41;2;0;
67892;PMS7003;54688;52.376;16.744;2023-04-03T08:36:43;4;1;
67892;PMS7003;54688;52.376;16.744;2023-04-03T08:39:45;1;1;
67892;PMS7003;54688;52.376;16.744;2023-04-03T08:42:54;0;0;
67892;PMS7003;54688;52.376;16.744;2023-04-03T08:46:02;1;1;
67892;PMS7003;54688;52.376;16.744;2023-04-03T08:49:13;1;1;
67892;PMS7003;54688;52.376;16.744;2023-04-03T08:52:22;0;0;
67892;PMS7003;54688;52.376;16.744;2023-04-03T08:55:28;1;1;
67892;PMS7003;54688;52.376;16.744;2023-04-03T08:58:35;1;0;
67892;PMS7003;54688;52.376;16.744;2023-04-03T09:01:42;6;3;
67892;PMS7003;54688;52.376;16.744;2023-04-03T09:04:44;3;2;
67892;PMS7003;54688;52.376;16.744;2023-04-03T09:07:50;2;1;
67892;PMS7003;54688;52.376;16.744;2023-04-03T09:11:08;1;1;
67892;PMS7003;54688;52.376;16.744;2023-04-03T09:14:18;2;0;
67892;PMS7003;54688;52.376;16.744;2023-04-03T09:17:31;2;0;
67892;PMS7003;54688;52.376;16.744;2023-04-03T09:20:43;5;1;
67892;PMS7003;54688;52.376;16.744;2023-04-03T09:23:47;3;1;
67892;PMS7003;54688;52.376;16.744;2023-04-03T09:26:54;4;1;
67892;PMS7003;54688;52.376;16.744;2023-04-03T09:29:58;1;1;
67892;PMS7003;54688;52.376;16.744;2023-04-03T09:32:59;3;1;
67892;PMS7003;54688;52.376;16.744;2023-04-03T09:36:02;3;1;
67892;PMS7003;54688;52.376;16.744;2023-04-03T09:39:05;1;1;
67892;PMS7003;54688;52.376;16.744;2023-04-03T09:42:16;1;1;
67892;PMS7003;54688;52.376;16.744;2023-04-03T09:45:24;3;2;
67892;PMS7003;54688;52.376;16.744;2023-04-03T09:48:26;3;1;
67892;PMS7003;54688;52.376;16.744;2023-04-03T09:51:29;3;1;
67892;PMS7003;54688;52.376;16.744;2023-04-03T09:54:35;3;1;
67892;PMS7003;54688;52.376;16.744;2023-04-03T09:57:38;1;1;
67892;PMS7003;54688;52.376;16.744;2023-04-03T10:00:40;4;1;
67892;PMS7003;54688;52.376;16.744;2023-04-03T10:03:43;5;1;
67892;PMS7003;54688;52.376;16.744;2023-04-03T10:06:46;2;1;
67892;PMS7003;54688;52.376;16.744;2023-04-03T10:09:55;0;0;
67892;PMS7003;54688;52.376;16.744;2023-04-03T10:13:04;2;1;
67892;PMS7003;54688;52.376;16.744;2023-04-03T10:16:09;3;2;
67892;PMS7003;54688;52.376;16.744;2023-04-03T10:19:29;1;0;
67892;PMS7003;54688;52.376;16.744;2023-04-03T10:22:39;2;2;
67892;PMS7003;54688;52.376;16.744;2023-04-03T10:25:49;0;0;
67892;PMS7003;54688;52.376;16.744;2023-04-03T10:28:57;2;2;
67892;PMS7003;54688;52.376;16.744;2023-04-03T10:32:15;2;1;
67892;PMS7003;54688;52.376;16.744;2023-04-03T10:35:28;2;2;
67892;PMS7003;54688;52.376;16.744;2023-04-03T10:38:43;1;1;
67892;PMS7003;54688;52.376;16.744;2023-04-03T10:44:57;1;0;
67892;PMS7003;54688;52.376;16.744;2023-04-03T10:48:06;4;3;
67892;PMS7003;54688;52.376;16.744;2023-04-03T10:51:16;4;2;
67892;PMS7003;54688;52.376;16.744;2023-04-03T10:54:24;2;1;
67892;PMS7003;54688;52.376;16.744;2023-04-03T10:57:27;2;2;
67892;PMS7003;54688;52.376;16.744;2023-04-03T11:00:35;1;1;
67892;PMS7003;54688;52.376;16.744;2023-04-03T11:03:40;2;2;
67892;PMS7003;54688;52.376;16.744;2023-04-03T11:06:46;0;0;
67892;PMS7003;54688;52.376;16.744;2023-04-03T11:09:52;1;1;
67892;PMS7003;54688;52.376;16.744;2023-04-03T11:13:01;0;0;
67892;PMS7003;54688;52.376;16.744;2023-04-03T11:16:04;1;1;
67892;PMS7003;54688;52.376;16.744;2023-04-03T11:19:13;1;1;
67892;PMS7003;54688;52.376;16.744;2023-04-03T11:22:22;3;1;
67892;PMS7003;54688;52.376;16.744;2023-04-03T11:25:26;3;3;
67892;PMS7003;54688;52.376;16.744;2023-04-03T11:28:30;2;2;
67892;PMS7003;54688;52.376;16.744;2023-04-03T11:31:41;2;2;
67892;PMS7003;54688;52.376;16.744;2023-04-03T11:34:47;4;2;
67892;PMS7003;54688;52.376;16.744;2023-04-03T11:37:51;3;2;
67892;PMS7003;54688;52.376;16.744;2023-04-03T11:40:55;10;3;
67892;PMS7003;54688;52.376;16.744;2023-04-03T11:44:00;2;2;
67892;PMS7003;54688;52.376;16.744;2023-04-03T11:50:04;4;3;
67892;PMS7003;54688;52.376;16.744;2023-04-03T11:53:38;4;2;
67892;PMS7003;54688;52.376;16.744;2023-04-03T11:56:41;4;2;
67892;PMS7003;54688;52.376;16.744;2023-04-03T11:59:43;2;1;
67892;PMS7003;54688;52.376;16.744;2023-04-03T12:02:45;1;1;
67892;PMS7003;54688;52.376;16.744;2023-04-03T12:05:47;3;2;
67892;PMS7003;54688;52.376;16.744;2023-04-03T12:08:50;3;2;
67892;PMS7003;54688;52.376;16.744;2023-04-03T12:11:55;4;3;
67892;PMS7003;54688;52.376;16.744;2023-04-03T12:15:16;4;1;
67892;PMS7003;54688;52.376;16.744;2023-04-03T12:18:43;1;1;
67892;PMS7003;54688;52.376;16.744;2023-04-03T12:22:18;2;2;
67892;PMS7003;54688;52.376;16.744;2023-04-03T12:25:47;2;1;
67892;PMS7003;54688;52.376;16.744;2023-04-03T12:28:51;3;2;
67892;PMS7003;54688;52.376;16.744;2023-04-03T12:32:03;4;2;
67892;PMS7003;54688;52.376;16.744;2023-04-03T12:35:17;2;1;
67892;PMS7003;54688;52.376;16.744;2023-04-03T12:38:33;0;0;
67892;PMS7003;54688;52.376;16.744;2023-04-03T12:41:38;2;1;
67892;PMS7003;54688;52.376;16.744;2023-04-03T12:44:54;3;2;
67892;PMS7003;54688;52.376;16.744;2023-04-03T12:47:57;2;1;
67892;PMS7003;54688;52.376;16.744;2023-04-03T12:51:04;0;0;
67892;PMS7003;54688;52.376;16.744;2023-04-03T12:54:13;2;1;
67892;PMS7003;54688;52.376;16.744;2023-04-03T12:57:18;3;2;
67892;PMS7003;54688;52.376;16.744;2023-04-03T13:03:22;4;4;
67892;PMS7003;54688;52.376;16.744;2023-04-03T13:06:28;2;1;
67892;PMS7003;54688;52.376;16.744;2023-04-03T13:12:32;3;3;
67892;PMS7003;54688;52.376;16.744;2023-04-03T13:15:41;1;1;
67892;PMS7003;54688;52.376;16.744;2023-04-03T13:18:50;1;1;
67892;PMS7003;54688;52.376;16.744;2023-04-03T13:21:58;3;2;
67892;PMS7003;54688;52.376;16.744;2023-04-03T13:25:06;6;4;
67892;PMS7003;54688;52.376;16.744;2023-04-03T13:28:12;4;1;
67892;PMS7003;54688;52.376;16.744;2023-04-03T13:31:20;3;3;
67892;PMS7003;54688;52.376;16.744;2023-04-03T13:34:27;4;3;
67892;PMS7003;54688;52.376;16.744;2023-04-03T13:37:32;1;1;
67892;PMS7003;54688;52.376;16.744;2023-04-03T13:40:47;1;1;
67892;PMS7003;54688;52.376;16.744;2023-04-03T13:43:49;5;2;
67892;PMS7003;54688;52.376;16.744;2023-04-03T13:50:00;0;0;
67892;PMS7003;54688;52.376;16.744;2023-04-03T13:53:11;4;3;
67892;PMS7003;54688;52.376;16.744;2023-04-03T13:56:19;2;2;
67892;PMS7003;54688;52.376;16.744;2023-04-03T13:59:24;8;4;
67892;PMS7003;54688;52.376;16.744;2023-04-03T14:02:31;4;2;
67892;PMS7003;54688;52.376;16.744;2023-04-03T14:05:35;2;2;
67892;PMS7003;54688;52.376;16.744;2023-04-03T14:08:37;6;3;
67892;PMS7003;54688;52.376;16.744;2023-04-03T14:11:41;6;3;
67892;PMS7003;54688;52.376;16.744;2023-04-03T14:14:44;4;4;
67892;PMS7003;54688;52.376;16.744;2023-04-03T14:17:47;2;2;
67892;PMS7003;54688;52.376;16.744;2023-04-03T14:20:50;3;1;
67892;PMS7003;54688;52.376;16.744;2023-04-03T14:23:52;4;2;
67892;PMS7003;54688;52.376;16.744;2023-04-03T14:26:55;4;0;
67892;PMS7003;54688;52.376;16.744;2023-04-03T14:29:58;2;2;
67892;PMS7003;54688;52.376;16.744;2023-04-03T14:33:01;1;1;
67892;PMS7003;54688;52.376;16.744;2023-04-03T14:36:12;3;3;
67892;PMS7003;54688;52.376;16.744;2023-04-03T14:39:18;8;5;
67892;PMS7003;54688;52.376;16.744;2023-04-03T14:42:22;4;2;
67892;PMS7003;54688;52.376;16.744;2023-04-03T14:45:25;4;2;
67892;PMS7003;54688;52.376;16.744;2023-04-03T14:48:28;4;4;
67892;PMS7003;54688;52.376;16.744;2023-04-03T14:51:31;1;1;
67892;PMS7003;54688;52.376;16.744;2023-04-03T14:54:33;2;2;
67892;PMS7003;54688;52.376;16.744;2023-04-03T15:00:35;1;1;
67892;PMS7003;54688;52.376;16.744;2023-04-03T15:03:36;2;2;
67892;PMS7003;54688;52.376;16.744;2023-04-03T15:06:39;7;3;
67892;PMS7003;54688;52.376;16.744;2023-04-03T15:09:41;9;4;
67892;PMS7003;54688;52.376;16.744;2023-04-03T15:12:44;2;2;
67892;PMS7003;54688;52.376;16.744;2023-04-03T15:15:48;1;1;
67892;PMS7003;54688;52.376;16.744;2023-04-03T15:18:51;2;0;
67892;PMS7003;54688;52.376;16.744;2023-04-03T15:21:53;3;1;
67892;PMS7003;54688;52.376;16.744;2023-04-03T15:24:54;3;2;
67892;PMS7003;54688;52.376;16.744;2023-04-03T15:27:57;1;1;
67892;PMS7003;54688;52.376;16.744;2023-04-03T15:30:59;3;3;
67892;PMS7003;54688;52.376;16.744;2023-04-03T15:34:02;2;2;
67892;PMS7003;54688;52.376;16.744;2023-04-03T15:40:06;1;1;
67892;PMS7003;54688;52.376;16.744;2023-04-03T15:43:08;3;1;
67892;PMS7003;54688;52.376;16.744;2023-04-03T15:46:12;1;0;
67892;PMS7003;54688;52.376;16.744;2023-04-03T15:49:14;0;0;
67892;PMS7003;54688;52.376;16.744;2023-04-03T15:52:17;1;1;
67892;PMS7003;54688;52.376;16.744;2023-04-03T15:55:19;2;2;
67892;PMS7003;54688;52.376;16.744;2023-04-03T15:58:20;3;1;
67892;PMS7003;54688;52.376;16.744;2023-04-03T16:01:22;1;1;
67892;PMS7003;54688;52.376;16.744;2023-04-03T16:04:24;2;1;
67892;PMS7003;54688;52.376;16.744;2023-04-03T16:10:26;2;2;
67892;PMS7003;54688;52.376;16.744;2023-04-03T16:13:29;4;2;
67892;PMS7003;54688;52.376;16.744;2023-04-03T16:16:32;1;1;
67892;PMS7003;54688;52.376;16.744;2023-04-03T16:19:34;1;1;
67892;PMS7003;54688;52.376;16.744;2023-04-03T16:22:37;0;0;
67892;PMS7003;54688;52.376;16.744;2023-04-03T16:25:40;0;0;
67892;PMS7003;54688;52.376;16.744;2023-04-03T16:28:43;1;1;
67892;PMS7003;54688;52.376;16.744;2023-04-03T16:31:44;2;0;
67892;PMS7003;54688;52.376;16.744;2023-04-03T16:34:47;3;1;
67892;PMS7003;54688;52.376;16.744;2023-04-03T16:37:49;2;2;
67892;PMS7003;54688;52.376;16.744;2023-04-03T16:40:51;3;2;
67892;PMS7003;54688;52.376;16.744;2023-04-03T16:43:54;3;1;
67892;PMS7003;54688;52.376;16.744;2023-04-03T16:46:56;2;2;
67892;PMS7003;54688;52.376;16.744;2023-04-03T16:49:58;3;1;
67892;PMS7003;54688;52.376;16.744;2023-04-03T16:53:00;3;2;
67892;PMS7003;54688;52.376;16.744;2023-04-03T16:56:02;3;2;
67892;PMS7003;54688;52.376;16.744;2023-04-03T16:59:03;3;1;
67892;PMS7003;54688;52.376;16.744;2023-04-03T17:02:06;2;2;
67892;PMS7003;54688;52.376;16.744;2023-04-03T17:05:08;3;3;
67892;PMS7003;54688;52.376;16.744;2023-04-03T17:08:10;4;4;
67892;PMS7003;54688;52.376;16.744;2023-04-03T17:11:13;3;3;
67892;PMS7003;54688;52.376;16.744;2023-04-03T17:14:15;5;4;
67892;PMS7003;54688;52.376;16.744;2023-04-03T17:17:19;7;3;
67892;PMS7003;54688;52.376;16.744;2023-04-03T17:20:22;5;4;
67892;PMS7003;54688;52.376;16.744;2023-04-03T17:23:25;8;2;
67892;PMS7003;54688;52.376;16.744;2023-04-03T17:29:27;14;13;
67892;PMS7003;54688;52.376;16.744;2023-04-03T17:32:29;27;20;
67892;PMS7003;54688;52.376;16.744;2023-04-03T17:35:32;26;19;
67892;PMS7003;54688;52.376;16.744;2023-04-03T17:38:35;25;19;
67892;PMS7003;54688;52.376;16.744;2023-04-03T17:41:37;18;17;
67892;PMS7003;54688;52.376;16.744;2023-04-03T17:44:39;14;12;
67892;PMS7003;54688;52.376;16.744;2023-04-03T17:47:41;16;14;
67892;PMS7003;54688;52.376;16.744;2023-04-03T17:50:43;13;11;
67892;PMS7003;54688;52.376;16.744;2023-04-03T17:53:46;19;17;
67892;PMS7003;54688;52.376;16.744;2023-04-03T17:56:48;11;11;
67892;PMS7003;54688;52.376;16.744;2023-04-03T17:59:51;9;7;
67892;PMS7003;54688;52.376;16.744;2023-04-03T18:02:53;10;6;
67892;PMS7003;54688;52.376;16.744;2023-04-03T18:05:56;5;4;
67892;PMS7003;54688;52.376;16.744;2023-04-03T18:09:03;7;6;
67892;PMS7003;54688;52.376;16.744;2023-04-03T18:12:06;4;3;
67892;PMS7003;54688;52.376;16.744;2023-04-03T18:15:10;9;6;
67892;PMS7003;54688;52.376;16.744;2023-04-03T18:18:12;6;5;
67892;PMS7003;54688;52.376;16.744;2023-04-03T18:21:15;7;4;
67892;PMS7003;54688;52.376;16.744;2023-04-03T18:24:19;3;3;
67892;PMS7003;54688;52.376;16.744;2023-04-03T18:27:25;3;3;
67892;PMS7003;54688;52.376;16.744;2023-04-03T18:30:28;4;4;
67892;PMS7003;54688;52.376;16.744;2023-04-03T18:36:29;7;6;
67892;PMS7003;54688;52.376;16.744;2023-04-03T18:39:31;16;10;
67892;PMS7003;54688;52.376;16.744;2023-04-03T18:42:34;9;8;
67892;PMS7003;54688;52.376;16.744;2023-04-03T18:45:35;15;13;
67892;PMS7003;54688;52.376;16.744;2023-04-03T18:48:38;13;11;
67892;PMS7003;54688;52.376;16.744;2023-04-03T18:51:40;15;11;
67892;PMS7003;54688;52.376;16.744;2023-04-03T18:54:42;11;11;
67892;PMS7003;54688;52.376;16.744;2023-04-03T18:57:44;27;20;
67892;PMS7003;54688;52.376;16.744;2023-04-03T19:00:47;25;20;
67892;PMS7003;54688;52.376;16.744;2023-04-03T19:06:48;13;11;
67892;PMS7003;54688;52.376;16.744;2023-04-03T19:09:50;11;9;
67892;PMS7003;54688;52.376;16.744;2023-04-03T19:12:52;12;10;
67892;PMS7003;54688;52.376;16.744;2023-04-03T19:15:56;9;8;
67892;PMS7003;54688;52.376;16.744;2023-04-03T19:18:59;8;6;
67892;PMS7003;54688;52.376;16.744;2023-04-03T19:22:02;6;4;
67892;PMS7003;54688;52.376;16.744;2023-04-03T19:25:05;11;7;
67892;PMS7003;54688;52.376;16.744;2023-04-03T19:28:08;10;6;
67892;PMS7003;54688;52.376;16.744;2023-04-03T19:31:11;9;9;
67892;PMS7003;54688;52.376;16.744;2023-04-03T19:34:13;11;9;
67892;PMS7003;54688;52.376;16.744;2023-04-03T19:37:15;22;16;
67892;PMS7003;54688;52.376;16.744;2023-04-03T19:40:18;9;9;
67892;PMS7003;54688;52.376;16.744;2023-04-03T19:43:20;12;9;
67892;PMS7003;54688;52.376;16.744;2023-04-03T19:46:22;12;12;
67892;PMS7003;54688;52.376;16.744;2023-04-03T19:49:25;11;9;
67892;PMS7003;54688;52.376;16.744;2023-04-03T19:52:27;8;8;
67892;PMS7003;54688;52.376;16.744;2023-04-03T19:55:29;8;8;
67892;PMS7003;54688;52.376;16.744;2023-04-03T19:58:32;11;10;
67892;PMS7003;54688;52.376;16.744;2023-04-03T20:01:35;13;9;
67892;PMS7003;54688;52.376;16.744;2023-04-03T20:04:36;10;9;
67892;PMS7003;54688;52.376;16.744;2023-04-03T20:07:38;8;8;
67892;PMS7003;54688;52.376;16.744;2023-04-03T20:10:41;9;7;
67892;PMS7003;54688;52.376;16.744;2023-04-03T20:13:42;12;8;
67892;PMS7003;54688;52.376;16.744;2023-04-03T20:19:44;11;9;
67892;PMS7003;54688;52.376;16.744;2023-04-03T20:22:46;9;4;
67892;PMS7003;54688;52.376;16.744;2023-04-03T20:25:48;6;5;
67892;PMS7003;54688;52.376;16.744;2023-04-03T20:28:51;10;8;
67892;PMS7003;54688;52.376;16.744;2023-04-03T20:34:53;9;6;
67892;PMS7003;54688;52.376;16.744;2023-04-03T20:37:56;11;8;
67892;PMS7003;54688;52.376;16.744;2023-04-03T20:40:58;8;8;
67892;PMS7003;54688;52.376;16.744;2023-04-03T20:46:59;8;6;
67892;PMS7003;54688;52.376;16.744;2023-04-03T20:50:01;10;10;
67892;PMS7003;54688;52.376;16.744;2023-04-03T20:53:04;11;9;
67892;PMS7003;54688;52.376;16.744;2023-04-03T20:56:07;11;11;
67892;PMS7003;54688;52.376;16.744;2023-04-03T20:59:10;8;6;
67892;PMS7003;54688;52.376;16.744;2023-04-03T21:02:12;12;11;
67892;PMS7003;54688;52.376;16.744;2023-04-03T21:05:15;24;21;
67892;PMS7003;54688;52.376;16.744;2023-04-03T21:22:00;12;11;
67892;PMS7003;54688;52.376;16.744;2023-04-03T21:25:03;17;14;
67892;PMS7003;54688;52.376;16.744;2023-04-03T21:28:04;11;9;
67892;PMS7003;54688;52.376;16.744;2023-04-03T21:34:05;8;7;
67892;PMS7003;54688;52.376;16.744;2023-04-03T21:37:08;8;6;
67892;PMS7003;54688;52.376;16.744;2023-04-03T21:40:10;7;6;
67892;PMS7003;54688;52.376;16.744;2023-04-03T21:43:13;9;5;
67892;PMS7003;54688;52.376;16.744;2023-04-03T21:46:15;13;8;
67892;PMS7003;54688;52.376;16.744;2023-04-03T21:49:17;9;6;
67892;PMS7003;54688;52.376;16.744;2023-04-03T21:52:19;8;8;
67892;PMS7003;54688;52.376;16.744;2023-04-03T21:55:21;12;11;
67892;PMS7003;54688;52.376;16.744;2023-04-03T21:58:27;16;8;
67892;PMS7003;54688;52.376;16.744;2023-04-03T22:01:29;19;13;
67892;PMS7003;54688;52.376;16.744;2023-04-03T22:04:31;9;8;
67892;PMS7003;54688;52.376;16.744;2023-04-03T22:07:33;7;7;